Clayton, Washington
Current Conditions -  °F | °C
As of 7:09 PM on Friday 28 Nov 2014 (Local Time) from KDEW Reporting Station
Light Rain Light Rain  
Wind Chill: 39°   Ceiling: 2100
Heat Index: 47°   Visibility: 9mi
Dew Point: 44°   Wind: 25mph
Humidity: 90%   Direction: 210°SSW
Pressure: 29.23"   Gusts: 35mph
Location:  47.99°N, 117.56°W
Report Text: KDEW 290309Z AUTO 21022G30KT 9SM -RA SCT017 BKN021 OVC043 08/07 A2923 RMK AO2 PK WND 21030/0307 P0002 T00830067
Loading
Personal Weather Stations






























Interactive Weather Map New forecast layout! Learn more

10-Day Weather Forecast

Advertisements
Track Severe Weather on mobile